首页
METAR-TAF:

METAR-TAF

机场 :

梅赫拉巴德國際機場

德黑兰, 伊朗

纬度: 35-41N, 经度: 051-21E, 海拔: 1204米

当前天气观测

该预报发布于37分钟前的16:30 UTC
静风
温度 7°C
湿度 49%
气压 1018 hPa
能見度: 8000
散云层高于10000英尺

METAR: OIII 121630Z 00000KT 8000 SCT100 07/M03 Q1018 A3007

时间: 20:37 (17:07 UTC)

预报

该预报发布于5小时和17分钟前的11:50 UTC
预报有效从12日的 12点(UTC)到 13日的 18点(UTC)
风速8节,风向西转西南
能見度: 8000
少量云层高于4000英尺
散云层高于10000英尺
短暂存在
从 13日的 10点(UTC)到 13日的 14点(UTC)
能見度: 5000
少量云层高于3500英尺, 积雨云.
散云层高于4000英尺
多云层高于10000英尺

TAF: OIII 121150Z 1212/1318 24008KT 8000 FEW040 SCT100 TEMPO 1310/1314 5000 RA FEW035CB SCT040 BKN100

超过4000个机场的气象观测和天气预报(METAR&TAF报告)。

可查询的气象台以黄色和红色小点在地图上表示。

将鼠标移到小点上方,可查看气象台名称。

然后点击查看天气观测和预报。

如需切换地图:点击带黑十字的绿色按钮放大地图;点击带横线的绿色按钮缩小地图;或者点击绿色箭头查看邻近地区的地图。


METAR-TAF: